Time;durP1;ratioP1;P1;durP2;ratioP2;P2;SDS_P1;SDS_P2;PMS_P1;PMS_P2;Temp;Humidity;BMP_temperature;BMP_pressure;BME280_temperature;BME280_humidity;BME280_pressure;Samples;Min_cycle;Max_cycle;Signal;HPM_P1;HPM_P2
2022/06/13 00:00:47;;;;;;;10.90;3.78;;;13.50;99.90;;;;;;5055598;28;20017;-67
2022/06/13 00:03:13;;;;;;;13.30;3.47;;;13.50;99.90;;;;;;5045226;28;20109;-67
2022/06/13 00:05:39;;;;;;;18.27;4.57;;;13.50;99.90;;;;;;5052908;28;20387;-67
2022/06/13 00:08:04;;;;;;;11.00;3.83;;;13.40;99.90;;;;;;5062963;28;20878;-67
2022/06/13 00:10:30;;;;;;;15.20;3.83;;;13.40;99.90;;;;;;5064952;28;20049;-66
2022/06/13 00:12:56;;;;;;;13.48;4.28;;;13.40;99.90;;;;;;5054149;28;20033;-67
2022/06/13 00:15:21;;;;;;;11.48;3.97;;;13.30;99.90;;;;;;5066799;28;20518;-67
2022/06/13 00:17:47;;;;;;;19.42;4.43;;;13.30;99.90;;;;;;5063558;28;20808;-67
2022/06/13 00:20:13;;;;;;;13.90;4.03;;;13.20;99.90;;;;;;5065097;28;20506;-69
2022/06/13 00:22:40;;;;;;;15.18;3.75;;;13.20;99.90;;;;;;5059264;28;20032;-67
2022/06/13 00:25:06;;;;;;;16.80;4.45;;;13.10;99.90;;;;;;5053439;28;20032;-67
2022/06/13 00:27:33;;;;;;;13.73;3.40;;;13.10;99.90;;;;;;5051522;28;20029;-66
2022/06/13 00:29:58;;;;;;;15.38;4.55;;;13.00;99.90;;;;;;5056986;28;20035;-68
2022/06/13 00:32:24;;;;;;;11.20;3.83;;;13.00;99.90;;;;;;5066405;28;20032;-68
2022/06/13 00:34:50;;;;;;;15.13;4.32;;;12.90;99.90;;;;;;5070663;28;20032;-67
2022/06/13 00:37:16;;;;;;;13.38;4.28;;;12.90;99.90;;;;;;5042682;28;20025;-73
2022/06/13 00:39:42;;;;;;;16.33;3.72;;;12.90;99.90;;;;;;5043175;28;20028;-69
2022/06/13 00:42:09;;;;;;;12.38;3.72;;;12.90;99.90;;;;;;5052953;28;20028;-67
2022/06/13 00:44:38;;;;;;;20.13;4.53;;;12.90;99.90;;;;;;5057242;28;20028;-68
2022/06/13 00:47:04;;;;;;;14.93;4.32;;;12.90;99.90;;;;;;5065891;28;20033;-67
2022/06/13 00:49:41;;;;;;;12.88;4.47;;;12.90;99.90;;;;;;5042568;28;20492;-71
2022/06/13 00:52:19;;;;;;;13.70;4.18;;;12.90;99.90;;;;;;5060132;28;20132;-67
2022/06/13 00:54:47;;;;;;;13.02;3.92;;;12.90;99.90;;;;;;5057040;28;20079;-67
2022/06/13 00:57:18;;;;;;;15.48;4.28;;;12.90;99.90;;;;;;5057644;28;20036;-71
2022/06/13 00:59:45;;;;;;;11.57;3.90;;;12.90;99.90;;;;;;5042331;28;20017;-67
2022/06/13 01:02:11;;;;;;;11.85;3.63;;;12.90;99.90;;;;;;5055598;28;20513;-67
2022/06/13 01:04:39;;;;;;;17.75;4.13;;;12.80;99.90;;;;;;5053416;28;20036;-67
2022/06/13 01:07:05;;;;;;;15.73;4.20;;;12.80;99.90;;;;;;5050488;28;20127;-68
2022/06/13 01:12:17;;;;;;;17.75;4.55;;;12.80;99.90;;;;;;5058104;28;20032;-67
2022/06/13 01:14:55;;;;;;;12.65;4.13;;;12.80;99.90;;;;;;5057714;28;20029;-67
2022/06/13 01:17:24;;;;;;;11.75;3.83;;;12.80;99.90;;;;;;5059017;28;20606;-69
2022/06/13 01:20:27;;;;;;;14.13;4.57;;;12.70;99.90;;;;;;5063051;28;20048;-71
2022/06/13 01:23:46;;;;;;;14.02;4.55;;;12.70;99.90;;;;;;5062051;28;20032;-69
2022/06/13 01:27:10;;;;;;;14.65;4.57;;;12.70;99.90;;;;;;5005496;28;20033;-67
2022/06/13 01:29:53;;;;;;;17.50;4.40;;;12.70;99.90;;;;;;4967620;28;20055;-70
2022/06/13 01:32:52;;;;;;;14.93;3.80;;;12.60;99.90;;;;;;4975683;28;20695;-68
2022/06/13 01:35:23;;;;;;;15.35;4.18;;;12.60;99.90;;;;;;4973999;28;20035;-68
2022/06/13 01:38:00;;;;;;;16.85;4.43;;;12.50;99.90;;;;;;4986194;28;20038;-69
2022/06/13 01:40:47;;;;;;;14.13;4.32;;;12.50;99.90;;;;;;4967625;28;20035;-68
2022/06/13 01:43:34;;;;;;;10.82;3.60;;;12.50;99.90;;;;;;4977060;28;20077;-70
2022/06/13 01:46:08;;;;;;;20.00;4.93;;;12.50;99.90;;;;;;4966692;28;20126;-68
2022/06/13 01:49:05;;;;;;;13.27;3.78;;;12.50;99.90;;;;;;4975860;28;20795;-67
2022/06/13 01:51:39;;;;;;;15.82;4.45;;;12.50;99.90;;;;;;4971279;28;20520;-67
2022/06/13 01:54:27;;;;;;;15.70;4.20;;;12.50;99.90;;;;;;4972174;28;20035;-68
2022/06/13 01:56:59;;;;;;;15.77;4.45;;;12.40;99.90;;;;;;4995930;28;20041;-67
2022/06/13 02:00:04;;;;;;;15.52;3.97;;;12.40;99.90;;;;;;4997810;28;20088;-67
2022/06/13 02:02:44;;;;;;;14.13;4.28;;;12.40;99.90;;;;;;4975964;28;21598;-69
2022/06/13 02:05:44;;;;;;;13.63;4.25;;;12.40;99.90;;;;;;5029894;28;20681;-68
2022/06/13 02:08:37;;;;;;;13.27;4.50;;;12.30;99.90;;;;;;5043384;28;20392;-68
2022/06/13 02:11:26;;;;;;;14.77;4.38;;;12.30;99.90;;;;;;5054752;28;20091;-68
2022/06/13 02:14:07;;;;;;;20.15;4.05;;;12.30;99.90;;;;;;5056292;28;20033;-68
2022/06/13 02:16:54;;;;;;;13.88;4.53;;;12.20;99.90;;;;;;5034911;28;20055;-68
2022/06/13 02:19:26;;;;;;;16.40;5.10;;;12.10;99.90;;;;;;5053459;28;20044;-67
2022/06/13 02:21:58;;;;;;;17.20;4.25;;;12.10;99.90;;;;;;5054290;28;20078;-70
2022/06/13 02:24:30;;;;;;;14.23;4.50;;;12.10;99.90;;;;;;5062038;28;20037;-68
2022/06/13 02:26:59;;;;;;;14.60;3.85;;;12.10;99.90;;;;;;5062343;28;20117;-69
2022/06/13 02:29:41;;;;;;;15.15;4.13;;;12.20;99.90;;;;;;5042927;28;20036;-68
2022/06/13 02:32:36;;;;;;;16.15;4.35;;;12.20;99.90;;;;;;5053308;28;20028;-69
2022/06/13 02:35:32;;;;;;;13.45;3.88;;;12.10;99.90;;;;;;5050037;28;20020;-68
2022/06/13 02:38:00;;;;;;;16.10;4.47;;;12.10;99.90;;;;;;5051386;28;20041;-72
2022/06/13 02:40:32;;;;;;;12.73;4.32;;;12.10;99.90;;;;;;5051710;28;20025;-68
2022/06/13 02:43:16;;;;;;;13.52;4.25;;;12.10;99.90;;;;;;5055661;28;20471;-68
2022/06/13 02:45:51;;;;;;;12.38;4.35;;;12.10;99.90;;;;;;5063707;28;20486;-68
2022/06/13 02:48:25;;;;;;;15.85;5.20;;;12.10;99.90;;;;;;5055501;28;20039;-70
2022/06/13 02:51:17;;;;;;;14.02;4.47;;;12.00;99.90;;;;;;5054337;28;20032;-68
2022/06/13 02:53:56;;;;;;;13.55;4.35;;;12.00;99.90;;;;;;5058196;28;20697;-70
2022/06/13 03:00:02;;;;;;;16.45;4.43;;;12.00;99.90;;;;;;5059393;28;20516;-70
2022/06/13 03:03:04;;;;;;;11.10;4.05;;;11.90;99.90;;;;;;5050543;28;20024;-69
2022/06/13 03:05:36;;;;;;;13.10;4.05;;;12.00;99.90;;;;;;5047368;28;20045;-68
2022/06/13 03:08:31;;;;;;;11.57;4.18;;;11.90;99.90;;;;;;5049891;28;20040;-69
2022/06/13 03:11:07;;;;;;;11.75;4.28;;;11.90;99.90;;;;;;5050820;28;20070;-69
2022/06/13 03:13:54;;;;;;;12.80;4.55;;;11.90;99.90;;;;;;5050046;28;20025;-68
2022/06/13 03:16:32;;;;;;;13.75;4.25;;;11.90;99.90;;;;;;5048926;28;20067;-67
2022/06/13 03:19:21;;;;;;;12.20;4.05;;;11.90;99.90;;;;;;5053543;28;20051;-68
2022/06/13 03:21:51;;;;;;;12.98;4.30;;;11.80;99.90;;;;;;5055533;28;20036;-68
2022/06/13 03:24:25;;;;;;;16.00;4.55;;;11.80;99.90;;;;;;5049947;28;20090;-69
2022/06/13 03:27:27;;;;;;;14.88;4.40;;;11.80;99.90;;;;;;5033318;28;20025;-69
2022/06/13 03:30:08;;;;;;;15.60;4.22;;;11.80;99.90;;;;;;5058555;28;20028;-69
2022/06/13 03:32:44;;;;;;;15.77;4.32;;;11.80;99.90;;;;;;5052993;28;20059;-69
2022/06/13 03:35:12;;;;;;;12.85;3.97;;;11.70;99.90;;;;;;5041148;28;20071;-68
2022/06/13 03:37:55;;;;;;;14.30;4.28;;;11.70;99.90;;;;;;5048444;28;20053;-70
2022/06/13 03:40:25;;;;;;;16.13;3.78;;;11.70;99.90;;;;;;5057503;28;20029;-70
2022/06/13 03:43:10;;;;;;;11.25;4.05;;;11.70;99.90;;;;;;5055103;28;20391;-70
2022/06/13 03:45:43;;;;;;;14.45;4.13;;;11.70;99.90;;;;;;5058780;28;20039;-69
2022/06/13 03:48:43;;;;;;;14.73;4.38;;;11.70;99.90;;;;;;5063525;28;20039;-68
2022/06/13 03:51:19;;;;;;;12.23;4.18;;;11.60;99.90;;;;;;5024152;28;20136;-67
2022/06/13 03:53:50;;;;;;;13.82;4.25;;;11.60;99.90;;;;;;5056019;28;20052;-67
2022/06/13 03:57:03;;;;;;;12.02;4.03;;;11.70;99.90;;;;;;5059479;28;20035;-70
2022/06/13 03:59:37;;;;;;;12.63;4.32;;;11.70;99.90;;;;;;5000082;28;20040;-72
2022/06/13 04:02:13;;;;;;;17.17;4.75;;;11.60;99.90;;;;;;4993610;28;20546;-69
2022/06/13 04:04:45;;;;;;;14.32;4.63;;;11.60;99.90;;;;;;5018817;28;20084;-69
2022/06/13 04:07:11;;;;;;;12.98;4.43;;;11.60;99.90;;;;;;5001787;28;20132;-68
2022/06/13 04:09:44;;;;;;;13.85;4.20;;;11.50;99.90;;;;;;4998885;28;20071;-68
2022/06/13 04:12:21;;;;;;;15.45;4.45;;;11.60;99.90;;;;;;4987305;28;20028;-68
2022/06/13 04:15:05;;;;;;;12.80;4.32;;;11.60;99.90;;;;;;5013375;28;20470;-69
2022/06/13 04:17:54;;;;;;;11.52;4.05;;;11.60;99.90;;;;;;5011209;28;20026;-68
2022/06/13 04:20:57;;;;;;;14.15;4.40;;;11.60;99.90;;;;;;4998547;28;20483;-68
2022/06/13 04:23:46;;;;;;;11.55;4.32;;;11.60;99.90;;;;;;4998346;28;20041;-67
2022/06/13 04:26:19;;;;;;;17.83;4.80;;;11.60;99.90;;;;;;5013987;28;20040;-67
2022/06/13 04:28:50;;;;;;;12.48;4.65;;;11.50;99.90;;;;;;5003804;28;20029;-67
2022/06/13 04:31:18;;;;;;;12.20;3.85;;;11.50;99.90;;;;;;4988930;28;20038;-69
2022/06/13 04:33:58;;;;;;;10.52;3.75;;;11.50;99.90;;;;;;5039050;28;20065;-69
2022/06/13 04:36:25;;;;;;;11.77;4.00;;;11.60;99.90;;;;;;5060600;28;20534;-68
2022/06/13 04:38:54;;;;;;;12.93;3.95;;;11.60;99.90;;;;;;5058402;28;20033;-67
2022/06/13 04:41:22;;;;;;;12.95;4.32;;;11.60;99.90;;;;;;5069705;28;20028;-67
2022/06/13 04:43:53;;;;;;;14.70;4.35;;;11.60;99.90;;;;;;5051810;28;20086;-67
2022/06/13 04:46:22;;;;;;;14.85;4.00;;;11.60;99.90;;;;;;5053755;28;20023;-69
2022/06/13 04:48:52;;;;;;;11.43;3.80;;;11.60;99.90;;;;;;5057312;28;20048;-68
2022/06/13 04:51:30;;;;;;;15.13;4.38;;;11.70;99.90;;;;;;5050314;28;20060;-70
2022/06/13 04:54:25;;;;;;;11.38;3.50;;;11.70;99.90;;;;;;5050798;28;20102;-68
2022/06/13 04:56:55;;;;;;;16.52;4.15;;;11.70;99.90;;;;;;5036326;28;20045;-66
2022/06/13 04:59:21;;;;;;;;;;;11.70;99.90;;;;;;5044457;28;20024;-68
2022/06/13 05:01:49;;;;;;;10.18;3.88;;;11.70;99.90;;;;;;5066853;28;20549;-69
2022/06/13 05:04:21;;;;;;;12.40;3.92;;;11.80;99.90;;;;;;5058737;28;20033;-68
2022/06/13 05:06:52;;;;;;;9.60;3.63;;;11.80;99.90;;;;;;5059083;28;20044;-69
2022/06/13 05:09:29;;;;;;;14.55;4.15;;;11.90;99.90;;;;;;5063220;28;20467;-67
2022/06/13 05:12:25;;;;;;;14.63;4.75;;;11.90;99.90;;;;;;5061959;28;20016;-68
2022/06/13 05:15:01;;;;;;;12.70;4.15;;;11.90;99.90;;;;;;5035914;28;20099;-69
2022/06/13 05:18:04;;;;;;;15.43;4.68;;;12.00;99.90;;;;;;5062205;28;20062;-70
2022/06/13 05:20:50;;;;;;;14.07;4.05;;;12.00;99.90;;;;;;5058844;28;20066;-68
2022/06/13 05:23:33;;;;;;;13.35;4.45;;;12.10;99.90;;;;;;5058534;28;20033;-69
2022/06/13 05:26:00;;;;;;;13.07;4.72;;;12.20;99.90;;;;;;5067069;28;20479;-72
2022/06/13 05:28:29;;;;;;;11.40;3.45;;;12.20;99.90;;;;;;5035872;28;20064;-70
2022/06/13 05:30:56;;;;;;;12.00;4.05;;;12.20;99.90;;;;;;5059309;28;20036;-69
2022/06/13 05:33:32;;;;;;;12.82;4.10;;;12.30;99.90;;;;;;5052452;28;20036;-69
2022/06/13 05:36:03;;;;;;;14.48;4.57;;;12.30;99.90;;;;;;5059245;28;20101;-70
2022/06/13 05:38:35;;;;;;;11.73;4.32;;;12.30;99.90;;;;;;5048274;28;20466;-69
2022/06/13 05:41:01;;;;;;;14.23;4.45;;;12.40;99.90;;;;;;5046312;28;20372;-68
2022/06/13 05:43:27;;;;;;;12.27;4.38;;;12.40;99.90;;;;;;5041749;28;20046;-66
2022/06/13 05:45:53;;;;;;;12.77;4.22;;;12.40;99.90;;;;;;5038129;28;20029;-67
2022/06/13 05:48:21;;;;;;;16.13;4.30;;;12.50;99.90;;;;;;5041144;28;20025;-67
2022/06/13 05:50:47;;;;;;;13.18;4.25;;;12.50;99.90;;;;;;5062492;28;20614;-67
2022/06/13 05:53:19;;;;;;;11.65;4.32;;;12.60;99.90;;;;;;5058676;28;20036;-69
2022/06/13 05:55:46;;;;;;;16.50;4.05;;;12.60;99.90;;;;;;5050229;28;20025;-66
2022/06/13 05:58:14;;;;;;;11.20;3.75;;;12.60;99.90;;;;;;5058852;28;20025;-67
2022/06/13 06:00:49;;;;;;;9.45;3.70;;;12.70;99.90;;;;;;5033490;28;20083;-69
2022/06/13 06:03:16;;;;;;;13.82;3.85;;;12.70;99.90;;;;;;5038322;28;20043;-69
2022/06/13 06:05:43;;;;;;;11.68;4.30;;;12.70;99.90;;;;;;5063815;28;20040;-67
2022/06/13 06:08:20;;;;;;;10.50;3.65;;;12.80;99.90;;;;;;5057701;28;20047;-67
2022/06/13 06:10:48;;;;;;;14.07;3.75;;;12.80;99.90;;;;;;5058375;28;20021;-67
2022/06/13 06:13:15;;;;;;;9.93;3.50;;;12.90;99.90;;;;;;5058339;28;20042;-68
2022/06/13 06:15:42;;;;;;;12.00;3.63;;;12.90;99.90;;;;;;5044404;28;20370;-68
2022/06/13 06:18:08;;;;;;;11.32;3.40;;;12.90;99.90;;;;;;5050743;28;20032;-68
2022/06/13 06:20:34;;;;;;;13.48;4.13;;;13.00;99.90;;;;;;5044024;28;20129;-68
2022/06/13 06:23:00;;;;;;;11.27;3.45;;;13.00;99.90;;;;;;5057873;28;20028;-67
2022/06/13 06:25:26;;;;;;;13.68;3.85;;;13.10;99.90;;;;;;5062339;28;20090;-67
2022/06/13 06:27:51;;;;;;;16.40;3.45;;;13.10;99.90;;;;;;5063126;28;20095;-67
2022/06/13 06:30:18;;;;;;;12.63;3.28;;;13.20;99.90;;;;;;5040042;28;20111;-67
2022/06/13 06:32:44;;;;;;;12.00;4.10;;;13.30;99.90;;;;;;5055457;28;20040;-69
2022/06/13 06:35:10;;;;;;;8.88;2.90;;;13.30;99.90;;;;;;5068977;28;20474;-70
2022/06/13 06:37:40;;;;;;;9.65;3.17;;;13.40;99.90;;;;;;5066552;28;20040;-68
2022/06/13 06:40:07;;;;;;;14.32;3.25;;;13.40;99.90;;;;;;5050051;28;20115;-67
2022/06/13 06:42:34;;;;;;;9.98;3.20;;;13.60;99.90;;;;;;5057817;28;20036;-66
2022/06/13 06:44:59;;;;;;;10.07;3.33;;;13.60;99.90;;;;;;5048627;28;20021;-66
2022/06/13 06:47:25;;;;;;;9.65;3.10;;;13.70;99.90;;;;;;5057723;28;20024;-73
2022/06/13 06:49:51;;;;;;;10.73;3.08;;;13.80;99.90;;;;;;5047460;28;20466;-67
2022/06/13 06:52:16;;;;;;;9.07;2.80;;;13.80;99.90;;;;;;5070174;28;20035;-67
2022/06/13 07:00:11;;;;;;;9.82;3.30;;;14.00;99.90;;;;;;5056922;28;20077;-69
2022/06/13 07:02:36;;;;;;;10.05;3.40;;;14.10;99.90;;;;;;5061273;28;20455;-68
2022/06/13 07:05:06;;;;;;;11.45;3.38;;;14.10;99.90;;;;;;5058817;28;20068;-67
2022/06/13 07:07:31;;;;;;;10.35;3.33;;;14.20;99.90;;;;;;5057590;28;20094;-69
2022/06/13 07:09:57;;;;;;;10.65;2.90;;;14.40;99.90;;;;;;5049888;28;20040;-68
2022/06/13 07:12:23;;;;;;;9.65;2.63;;;14.50;99.90;;;;;;5053582;28;20036;-70
2022/06/13 07:14:49;;;;;;;9.15;3.20;;;14.60;99.90;;;;;;5052963;28;20028;-68
2022/06/13 07:17:15;;;;;;;10.57;3.15;;;14.60;99.90;;;;;;5040151;28;20486;-67
2022/06/13 07:19:45;;;;;;;10.20;3.08;;;14.70;99.90;;;;;;5050843;28;20052;-72
2022/06/13 07:22:17;;;;;;;10.38;3.15;;;14.80;99.90;;;;;;5056173;28;20044;-67
2022/06/13 07:24:45;;;;;;;10.95;3.20;;;15.00;99.90;;;;;;5065158;28;20047;-68
2022/06/13 07:27:10;;;;;;;9.98;2.95;;;15.10;99.90;;;;;;5052146;28;20040;-67
2022/06/13 07:29:37;;;;;;;12.68;2.83;;;15.30;99.90;;;;;;5046903;28;20082;-66
2022/06/13 07:32:21;;;;;;;10.15;2.60;;;15.40;99.90;;;;;;5066590;28;20048;-67
2022/06/13 07:34:50;;;;;;;8.38;2.38;;;15.50;99.20;;;;;;5066593;28;20027;-67
2022/06/13 07:40:11;;;;;;;9.38;2.85;;;15.70;99.80;;;;;;5054822;28;20039;-66
2022/06/13 07:42:41;;;;;;;9.60;2.80;;;15.80;99.20;;;;;;5060369;28;20039;-67
2022/06/13 07:45:07;;;;;;;;;;;15.90;98.50;;;;;;5058905;28;20140;-67
2022/06/13 07:47:33;;;;;;;8.55;2.20;;;16.00;98.50;;;;;;5046598;28;19908;-68
2022/06/13 07:49:58;;;;;;;6.88;2.13;;;16.00;97.80;;;;;;5049870;28;20036;-67
2022/06/13 07:52:24;;;;;;;7.43;2.10;;;16.00;97.80;;;;;;5049344;28;20426;-67
2022/06/13 07:54:50;;;;;;;7.03;1.85;;;16.10;97.60;;;;;;5048697;28;20416;-70
2022/06/13 07:57:15;;;;;;;6.80;2.30;;;16.20;96.80;;;;;;5039239;28;20032;-68
2022/06/13 07:59:42;;;;;;;8.43;2.05;;;16.30;97.00;;;;;;5053935;28;20060;-67
2022/06/13 08:02:18;;;;;;;10.32;2.30;;;16.40;96.30;;;;;;5036237;28;20049;-67
2022/06/13 08:04:44;;;;;;;6.25;1.95;;;16.50;96.20;;;;;;5049920;28;20068;-66
2022/06/13 08:07:11;;;;;;;7.18;2.05;;;16.50;96.50;;;;;;5048937;28;20117;-67
2022/06/13 08:09:37;;;;;;;7.30;2.15;;;16.60;96.30;;;;;;5056344;28;20055;-67
2022/06/13 08:12:04;;;;;;;7.45;2.33;;;16.70;95.80;;;;;;5089936;28;20426;-68
2022/06/13 08:14:30;;;;;;;6.75;2.20;;;16.70;95.00;;;;;;5084528;28;20067;-68
2022/06/13 08:16:56;;;;;;;7.25;1.65;;;16.80;94.90;;;;;;5071087;28;20048;-69
2022/06/13 08:19:21;;;;;;;5.35;1.73;;;16.80;94.90;;;;;;5059872;28;20769;-66
2022/06/13 08:21:47;;;;;;;5.43;1.73;;;16.90;94.30;;;;;;5066139;28;20472;-66
2022/06/13 08:24:13;;;;;;;5.45;1.70;;;17.00;93.60;;;;;;5059310;28;20033;-67
2022/06/13 08:26:38;;;;;;;6.65;1.45;;;17.00;94.10;;;;;;5059413;28;20024;-66
2022/06/13 08:29:05;;;;;;;6.07;1.75;;;17.10;94.20;;;;;;5053268;28;20032;-67
2022/06/13 08:31:32;;;;;;;3.63;1.17;;;17.10;93.60;;;;;;5041547;28;20033;-67
2022/06/13 08:33:57;;;;;;;4.50;0.98;;;17.20;91.30;;;;;;5056635;28;20079;-66
2022/06/13 08:36:23;;;;;;;3.67;1.00;;;17.20;91.30;;;;;;5051699;28;20037;-66
2022/06/13 08:38:49;;;;;;;5.15;1.30;;;17.30;90.00;;;;;;5050944;28;20044;-67
2022/06/13 08:41:36;;;;;;;5.65;1.27;;;17.40;91.80;;;;;;5069806;28;20055;-66
2022/06/13 08:44:17;;;;;;;3.30;1.05;;;17.50;90.80;;;;;;5070949;28;20028;-67
2022/06/13 08:47:20;;;;;;;5.18;1.00;;;17.60;90.00;;;;;;5070775;28;20051;-67
2022/06/13 08:50:04;;;;;;;6.60;1.25;;;17.60;88.50;;;;;;5063010;28;20112;-66
2022/06/13 08:52:42;;;;;;;5.35;1.10;;;17.60;90.90;;;;;;5061032;28;20028;-67
2022/06/13 08:55:37;;;;;;;4.95;1.70;;;17.70;90.10;;;;;;5070732;28;20032;-67
2022/06/13 08:58:16;;;;;;;6.55;1.38;;;17.70;89.70;;;;;;5058934;28;20064;-66
2022/06/13 09:00:49;;;;;;;4.55;1.10;;;17.80;87.30;;;;;;5070591;28;20449;-67
2022/06/13 09:03:23;;;;;;;5.07;1.00;;;17.80;86.90;;;;;;5064831;28;20029;-67
2022/06/13 09:05:51;;;;;;;4.18;1.20;;;17.70;88.30;;;;;;5070222;28;20064;-66
2022/06/13 09:08:42;;;;;;;4.53;1.30;;;17.80;86.90;;;;;;5070283;28;20055;-68
2022/06/13 09:11:29;;;;;;;7.13;1.15;;;17.90;86.00;;;;;;5050940;28;20056;-67
2022/06/13 09:14:18;;;;;;;4.43;1.00;;;18.20;84.80;;;;;;5048463;28;20146;-67
2022/06/13 09:16:51;;;;;;;5.40;1.20;;;18.30;83.20;;;;;;5052157;28;20033;-67
2022/06/13 09:19:32;;;;;;;5.75;0.90;;;18.40;82.80;;;;;;5069085;28;20305;-69
2022/06/13 09:22:10;;;;;;;2.45;0.80;;;18.40;81.50;;;;;;5051898;28;20036;-67
2022/06/13 09:25:21;;;;;;;3.33;1.10;;;18.20;80.60;;;;;;5070341;28;20478;-66
2022/06/13 09:27:58;;;;;;;5.43;0.95;;;18.20;83.60;;;;;;5060270;28;20050;-67
2022/06/13 09:30:33;;;;;;;2.92;1.00;;;18.10;83.70;;;;;;5050321;28;20035;-67
2022/06/13 09:33:07;;;;;;;4.47;1.02;;;18.30;83.70;;;;;;5050883;28;20070;-69
2022/06/13 09:36:05;;;;;;;4.13;1.10;;;18.30;79.10;;;;;;5064933;28;20024;-66
2022/06/13 09:38:50;;;;;;;4.25;0.90;;;18.20;81.80;;;;;;5051338;28;20040;-67
2022/06/13 09:41:48;;;;;;;4.07;0.93;;;18.20;80.40;;;;;;5050889;28;20028;-68
2022/06/13 09:44:31;;;;;;;4.15;1.10;;;18.10;81.40;;;;;;5050332;28;20032;-68
2022/06/13 09:47:20;;;;;;;3.97;0.80;;;18.10;79.00;;;;;;5049492;28;20078;-68
2022/06/13 09:49:45;;;;;;;4.33;1.13;;;18.20;78.60;;;;;;5054953;28;20040;-67
2022/06/13 09:52:29;;;;;;;3.78;0.98;;;18.40;75.70;;;;;;5051089;28;20040;-66
2022/06/13 09:55:10;;;;;;;5.43;1.00;;;18.70;75.80;;;;;;5052908;28;20021;-67
2022/06/13 09:58:06;;;;;;;3.42;0.88;;;18.90;76.50;;;;;;5062060;28;20040;-66
2022/06/13 10:00:56;;;;;;;3.97;0.90;;;19.20;74.60;;;;;;5064472;28;20021;-70
2022/06/13 10:03:34;;;;;;;3.60;0.90;;;19.40;70.60;;;;;;5051328;28;20040;-67
2022/06/13 10:06:07;;;;;;;2.78;0.77;;;19.40;66.60;;;;;;5060963;28;20028;-66
2022/06/13 10:08:44;;;;;;;3.75;0.90;;;19.20;68.80;;;;;;5063683;28;20658;-68
2022/06/13 10:11:31;;;;;;;4.78;1.00;;;18.90;73.40;;;;;;5049828;28;20148;-68
2022/06/13 10:14:06;;;;;;;4.60;1.10;;;18.60;71.90;;;;;;5037102;28;20040;-69
2022/06/13 10:16:51;;;;;;;2.20;0.88;;;18.30;70.60;;;;;;5051921;28;20153;-66
2022/06/13 10:19:38;;;;;;;3.65;1.05;;;18.20;75.00;;;;;;5031011;28;20106;-68
2022/06/13 10:22:20;;;;;;;2.78;0.70;;;18.20;74.10;;;;;;5063344;28;20040;-69
2022/06/13 10:25:06;;;;;;;1.92;0.80;;;18.50;74.60;;;;;;5049352;28;20504;-69
2022/06/13 10:27:57;;;;;;;2.17;0.80;;;19.00;65.30;;;;;;5063863;28;20482;-68
2022/06/13 10:30:48;;;;;;;4.00;1.10;;;19.30;67.30;;;;;;5063461;28;20044;-68
2022/06/13 10:33:38;;;;;;;5.00;0.80;;;19.40;66.50;;;;;;5032281;28;20021;-68
2022/06/13 10:36:22;;;;;;;3.35;0.77;;;19.80;70.30;;;;;;5061724;28;20474;-68
2022/06/13 10:38:56;;;;;;;3.05;1.00;;;20.10;72.20;;;;;;5068425;28;20733;-69
2022/06/13 10:41:26;;;;;;;4.45;1.00;;;20.10;66.70;;;;;;5064345;28;20589;-68
2022/06/13 10:43:53;;;;;;;3.88;1.10;;;19.80;65.30;;;;;;5050401;28;20020;-68
2022/06/13 10:46:19;;;;;;;3.17;1.10;;;19.50;66.80;;;;;;5050135;28;20025;-69
2022/06/13 10:49:20;;;;;;;2.92;0.82;;;19.30;67.70;;;;;;5068135;28;20428;-68
2022/06/13 10:51:46;;;;;;;3.13;0.90;;;19.40;64.70;;;;;;5063554;28;20041;-69
2022/06/13 10:54:44;;;;;;;4.03;0.93;;;19.60;68.10;;;;;;5062544;28;20119;-68
2022/06/13 10:57:14;;;;;;;4.55;1.20;;;19.80;60.90;;;;;;5055365;28;20478;-68
2022/06/13 10:59:40;;;;;;;3.20;0.85;;;19.80;65.10;;;;;;5030864;28;20044;-68
2022/06/13 11:02:26;;;;;;;2.58;0.90;;;20.00;63.80;;;;;;5050459;28;20021;-69
2022/06/13 11:05:05;;;;;;;2.58;0.93;;;20.30;60.50;;;;;;5047697;28;20036;-68
2022/06/13 11:07:42;;;;;;;2.65;0.80;;;20.10;58.20;;;;;;5058834;28;20075;-70
2022/06/13 11:10:37;;;;;;;3.88;1.13;;;20.00;59.70;;;;;;5056065;28;20482;-68
2022/06/13 11:13:12;;;;;;;4.10;0.98;;;20.10;59.20;;;;;;5046232;28;20033;-68
2022/06/13 11:24:42;;;;;;;3.63;1.10;;;19.70;63.40;;;;;;5065904;28;20089;-69
2022/06/13 11:27:42;;;;;;;3.72;1.15;;;21.30;56.30;;;;;;5051881;28;20169;-68
2022/06/13 11:30:19;;;;;;;3.08;1.02;;;22.40;53.10;;;;;;5058838;28;20029;-70
2022/06/13 11:33:15;;;;;;;3.80;1.02;;;22.00;53.70;;;;;;5046485;28;20124;-67
2022/06/13 11:35:42;;;;;;;5.55;1.15;;;22.20;51.20;;;;;;5059162;28;20025;-68
2022/06/13 11:38:24;;;;;;;2.78;1.00;;;22.10;52.70;;;;;;5063048;28;20024;-70
2022/06/13 11:41:24;;;;;;;4.63;1.40;;;22.00;52.40;;;;;;5056279;28;20371;-69
2022/06/13 11:43:55;;;;;;;3.78;1.00;;;21.80;52.60;;;;;;5059580;28;20081;-68
2022/06/13 11:46:24;;;;;;;4.28;1.08;;;21.40;52.70;;;;;;5052973;28;20102;-70
2022/06/13 11:48:50;;;;;;;3.13;1.20;;;20.80;50.30;;;;;;5055844;28;20485;-68
2022/06/13 11:51:27;;;;;;;3.47;1.27;;;20.40;57.60;;;;;;5054269;28;20029;-70
2022/06/13 11:53:58;;;;;;;4.13;1.10;;;20.00;58.60;;;;;;5046128;28;20045;-68
2022/06/13 11:56:31;;;;;;;3.78;1.10;;;19.70;59.40;;;;;;5054623;28;20024;-69
2022/06/13 11:59:03;;;;;;;5.32;1.77;;;19.50;61.70;;;;;;5064606;28;20503;-69
2022/06/13 12:01:38;;;;;;;7.18;2.00;;;19.40;74.90;;;;;;5082422;28;20476;-69
2022/06/13 12:04:21;;;;;;;4.85;1.45;;;19.30;81.10;;;;;;5079603;28;20029;-68
2022/06/13 12:06:56;;;;;;;6.75;1.58;;;19.20;81.40;;;;;;5046173;28;20032;-70
2022/06/13 12:09:34;;;;;;;5.13;1.70;;;19.50;77.60;;;;;;5040846;28;20063;-68
2022/06/13 12:12:06;;;;;;;4.28;1.88;;;19.50;75.70;;;;;;5054343;28;20021;-70
2022/06/13 12:14:38;;;;;;;5.80;1.80;;;19.60;81.80;;;;;;5070364;28;20029;-68
2022/06/13 12:17:15;;;;;;;5.88;1.40;;;19.70;75.60;;;;;;5055205;28;20016;-69
2022/06/13 12:19:43;;;;;;;6.97;1.65;;;19.70;75.70;;;;;;5073887;28;20052;-68
2022/06/13 12:22:08;;;;;;;6.07;1.60;;;19.60;76.00;;;;;;5069462;28;20554;-68
2022/06/13 12:24:39;;;;;;;5.47;1.70;;;19.50;79.70;;;;;;5068449;28;20052;-69
2022/06/13 12:27:41;;;;;;;5.35;1.70;;;19.50;81.00;;;;;;5060443;28;20040;-70
2022/06/13 12:30:24;;;;;;;6.63;1.80;;;19.30;83.10;;;;;;5065999;28;20048;-70
2022/06/13 12:32:59;;;;;;;5.68;1.40;;;19.20;83.80;;;;;;5051230;28;20069;-68
2022/06/13 12:35:50;;;;;;;7.43;1.83;;;19.10;80.60;;;;;;5057911;28;20035;-71
2022/06/13 12:38:30;;;;;;;5.53;1.50;;;19.00;83.40;;;;;;5069835;28;20432;-69
2022/06/13 12:41:11;;;;;;;5.32;1.60;;;19.00;84.10;;;;;;5066646;28;20462;-68
2022/06/13 12:43:46;;;;;;;6.68;1.55;;;18.90;82.30;;;;;;5053884;28;20029;-69
2022/06/13 12:46:45;;;;;;;7.70;1.92;;;18.90;84.80;;;;;;5063448;28;20078;-68
2022/06/13 12:49:33;;;;;;;8.50;1.88;;;18.90;86.70;;;;;;5072215;28;20025;-69
2022/06/13 12:52:10;;;;;;;7.50;1.85;;;18.90;89.30;;;;;;5067576;28;20094;-71
2022/06/13 12:55:02;;;;;;;7.25;1.77;;;19.10;90.60;;;;;;5067606;28;20036;-69
2022/06/13 12:58:17;;;;;;;6.88;2.17;;;19.30;90.20;;;;;;5053829;28;20126;-70
2022/06/13 13:01:05;;;;;;;6.05;1.70;;;19.70;90.00;;;;;;5032835;28;20051;-69
2022/06/13 13:03:56;;;;;;;6.60;1.35;;;19.60;86.70;;;;;;5051191;28;20082;-69
2022/06/13 13:06:57;;;;;;;5.72;1.55;;;19.60;81.10;;;;;;5051747;28;20025;-69
2022/06/13 13:09:34;;;;;;;6.22;1.58;;;19.50;85.00;;;;;;5049153;28;20072;-69
2022/06/13 13:12:43;;;;;;;6.22;1.50;;;19.30;84.50;;;;;;5051435;28;20033;-71
2022/06/13 13:15:24;;;;;;;6.47;1.52;;;19.10;84.20;;;;;;5050510;28;20025;-68
2022/06/13 13:17:54;;;;;;;8.30;2.40;;;19.10;89.40;;;;;;5060674;28;20394;-70
2022/06/13 13:20:32;;;;;;;7.28;2.10;;;19.40;90.50;;;;;;5067824;28;20106;-68
2022/06/13 13:23:02;;;;;;;5.47;1.50;;;19.90;84.60;;;;;;5070309;28;20036;-70
2022/06/13 13:25:34;;;;;;;3.95;1.30;;;20.10;77.00;;;;;;5061477;28;20032;-68
2022/06/13 13:28:09;;;;;;;4.35;1.15;;;20.10;76.50;;;;;;5061315;28;20045;-69
2022/06/13 13:30:55;;;;;;;3.53;1.33;;;20.00;83.00;;;;;;5059986;28;20029;-68
2022/06/13 13:33:53;;;;;;;4.55;1.48;;;19.90;80.70;;;;;;5053766;28;20067;-68
2022/06/13 13:36:43;;;;;;;3.80;1.23;;;19.70;84.40;;;;;;5035878;28;20037;-70
2022/06/13 13:39:17;;;;;;;5.57;1.50;;;19.40;81.90;;;;;;5036448;28;20186;-68
2022/06/13 13:42:05;;;;;;;4.38;1.20;;;19.20;81.30;;;;;;5058057;28;20028;-69
2022/06/13 13:44:55;;;;;;;5.30;1.40;;;19.10;85.40;;;;;;5035232;28;20036;-69
2022/06/13 13:47:22;;;;;;;5.15;1.30;;;19.10;82.00;;;;;;5050231;28;20025;-69
2022/06/13 13:50:05;;;;;;;4.00;1.35;;;19.20;87.50;;;;;;5057750;28;20561;-68
2022/06/13 13:52:38;;;;;;;4.38;1.30;;;19.30;84.80;;;;;;5065874;28;20036;-70
2022/06/13 13:55:12;;;;;;;4.50;1.10;;;19.70;84.30;;;;;;5058813;28;20021;-69